sensor_id;sensor_type;location;lat;lon;timestamp;temperature;humidity
17986;DHT22;9118;48.122;11.546;2023-05-10T00:00:51;16.20;99.90
17986;DHT22;9118;48.122;11.546;2023-05-10T00:03:24;16.70;99.90
17986;DHT22;9118;48.122;11.546;2023-05-10T00:05:55;15.80;99.90
17986;DHT22;9118;48.122;11.546;2023-05-10T00:08:23;18.30;99.90
17986;DHT22;9118;48.122;11.546;2023-05-10T00:10:50;15.80;99.90
17986;DHT22;9118;48.122;11.546;2023-05-10T00:13:18;15.70;99.90
17986;DHT22;9118;48.122;11.546;2023-05-10T00:15:52;15.70;99.90
17986;DHT22;9118;48.122;11.546;2023-05-10T00:18:19;15.70;99.90
17986;DHT22;9118;48.122;11.546;2023-05-10T00:20:54;15.70;99.90
17986;DHT22;9118;48.122;11.546;2023-05-10T00:23:24;15.80;99.90
17986;DHT22;9118;48.122;11.546;2023-05-10T00:25:51;15.70;99.90
17986;DHT22;9118;48.122;11.546;2023-05-10T00:28:18;15.60;99.90
17986;DHT22;9118;48.122;11.546;2023-05-10T00:30:48;15.60;99.90
17986;DHT22;9118;48.122;11.546;2023-05-10T00:33:15;15.60;99.90
17986;DHT22;9118;48.122;11.546;2023-05-10T00:35:43;16.40;99.90
17986;DHT22;9118;48.122;11.546;2023-05-10T00:38:11;15.80;99.90
17986;DHT22;9118;48.122;11.546;2023-05-10T00:40:38;15.50;99.90
17986;DHT22;9118;48.122;11.546;2023-05-10T00:43:05;15.60;99.90
17986;DHT22;9118;48.122;11.546;2023-05-10T00:45:36;15.30;99.90
17986;DHT22;9118;48.122;11.546;2023-05-10T00:48:09;15.40;99.90
17986;DHT22;9118;48.122;11.546;2023-05-10T00:50:36;15.30;99.90
17986;DHT22;9118;48.122;11.546;2023-05-10T00:53:04;15.40;99.90
17986;DHT22;9118;48.122;11.546;2023-05-10T00:55:32;15.30;99.90
17986;DHT22;9118;48.122;11.546;2023-05-10T00:58:00;15.30;99.90
17986;DHT22;9118;48.122;11.546;2023-05-10T01:00:28;15.60;99.90
17986;DHT22;9118;48.122;11.546;2023-05-10T01:02:55;15.30;99.90
17986;DHT22;9118;48.122;11.546;2023-05-10T01:05:24;15.30;99.90
17986;DHT22;9118;48.122;11.546;2023-05-10T01:07:52;15.30;99.90
17986;DHT22;9118;48.122;11.546;2023-05-10T01:10:20;15.30;99.90
17986;DHT22;9118;48.122;11.546;2023-05-10T01:12:48;15.30;99.90
17986;DHT22;9118;48.122;11.546;2023-05-10T01:15:17;15.70;99.90
17986;DHT22;9118;48.122;11.546;2023-05-10T01:17:46;15.30;99.90
17986;DHT22;9118;48.122;11.546;2023-05-10T01:20:14;15.30;99.90
17986;DHT22;9118;48.122;11.546;2023-05-10T01:23:09;15.30;99.90
17986;DHT22;9118;48.122;11.546;2023-05-10T01:26:20;15.30;99.90
17986;DHT22;9118;48.122;11.546;2023-05-10T01:32:20;15.40;99.90
17986;DHT22;9118;48.122;11.546;2023-05-10T01:34:55;15.30;99.90
17986;DHT22;9118;48.122;11.546;2023-05-10T01:37:31;15.10;99.90
17986;DHT22;9118;48.122;11.546;2023-05-10T01:40:06;15.20;99.90
17986;DHT22;9118;48.122;11.546;2023-05-10T01:42:38;15.20;99.90
17986;DHT22;9118;48.122;11.546;2023-05-10T01:45:14;15.20;99.90
17986;DHT22;9118;48.122;11.546;2023-05-10T01:47:51;15.20;99.90
17986;DHT22;9118;48.122;11.546;2023-05-10T01:50:26;15.20;99.90
17986;DHT22;9118;48.122;11.546;2023-05-10T01:52:56;15.20;99.90
17986;DHT22;9118;48.122;11.546;2023-05-10T01:55:27;15.30;99.90
17986;DHT22;9118;48.122;11.546;2023-05-10T01:58:01;15.20;99.90
17986;DHT22;9118;48.122;11.546;2023-05-10T02:00:29;15.20;99.90
17986;DHT22;9118;48.122;11.546;2023-05-10T02:03:01;15.10;99.90
17986;DHT22;9118;48.122;11.546;2023-05-10T02:05:32;15.10;99.90
17986;DHT22;9118;48.122;11.546;2023-05-10T02:08:01;15.10;99.90
17986;DHT22;9118;48.122;11.546;2023-05-10T02:10:30;15.10;99.90
17986;DHT22;9118;48.122;11.546;2023-05-10T02:12:59;15.10;99.90
17986;DHT22;9118;48.122;11.546;2023-05-10T02:15:27;14.80;99.90
17986;DHT22;9118;48.122;11.546;2023-05-10T02:17:56;15.10;99.90
17986;DHT22;9118;48.122;11.546;2023-05-10T02:20:26;15.10;99.90
17986;DHT22;9118;48.122;11.546;2023-05-10T02:22:56;15.10;99.90
17986;DHT22;9118;48.122;11.546;2023-05-10T02:25:27;15.00;99.90
17986;DHT22;9118;48.122;11.546;2023-05-10T02:27:56;15.00;99.90
17986;DHT22;9118;48.122;11.546;2023-05-10T02:30:25;14.90;99.90
17986;DHT22;9118;48.122;11.546;2023-05-10T02:32:53;15.30;99.90
17986;DHT22;9118;48.122;11.546;2023-05-10T02:35:22;15.10;99.90
17986;DHT22;9118;48.122;11.546;2023-05-10T02:37:52;15.00;99.90
17986;DHT22;9118;48.122;11.546;2023-05-10T02:40:21;15.00;99.90
17986;DHT22;9118;48.122;11.546;2023-05-10T02:42:51;15.00;99.90
17986;DHT22;9118;48.122;11.546;2023-05-10T02:45:21;15.20;99.90
17986;DHT22;9118;48.122;11.546;2023-05-10T02:47:50;15.00;99.90
17986;DHT22;9118;48.122;11.546;2023-05-10T02:50:18;15.00;99.90
17986;DHT22;9118;48.122;11.546;2023-05-10T02:52:47;15.00;99.90
17986;DHT22;9118;48.122;11.546;2023-05-10T02:55:19;15.00;99.90
17986;DHT22;9118;48.122;11.546;2023-05-10T02:57:51;15.00;99.90
17986;DHT22;9118;48.122;11.546;2023-05-10T03:00:19;15.00;99.90
17986;DHT22;9118;48.122;11.546;2023-05-10T03:02:46;15.00;99.90
17986;DHT22;9118;48.122;11.546;2023-05-10T03:05:13;15.90;99.90
17986;DHT22;9118;48.122;11.546;2023-05-10T03:07:40;15.00;99.90
17986;DHT22;9118;48.122;11.546;2023-05-10T03:10:08;15.00;99.90
17986;DHT22;9118;48.122;11.546;2023-05-10T03:12:51;15.00;99.90
17986;DHT22;9118;48.122;11.546;2023-05-10T03:15:24;15.00;99.90
17986;DHT22;9118;48.122;11.546;2023-05-10T03:18:01;14.90;99.90
17986;DHT22;9118;48.122;11.546;2023-05-10T03:20:36;14.70;99.90
17986;DHT22;9118;48.122;11.546;2023-05-10T03:23:07;14.70;99.90
17986;DHT22;9118;48.122;11.546;2023-05-10T03:25:34;15.90;99.90
17986;DHT22;9118;48.122;11.546;2023-05-10T03:28:03;14.70;99.90
17986;DHT22;9118;48.122;11.546;2023-05-10T03:30:31;14.70;99.90
17986;DHT22;9118;48.122;11.546;2023-05-10T03:33:04;14.70;99.90
17986;DHT22;9118;48.122;11.546;2023-05-10T03:35:32;14.70;99.90
17986;DHT22;9118;48.122;11.546;2023-05-10T03:37:59;14.60;99.90
17986;DHT22;9118;48.122;11.546;2023-05-10T03:40:26;14.70;99.90
17986;DHT22;9118;48.122;11.546;2023-05-10T03:42:54;14.70;99.90
17986;DHT22;9118;48.122;11.546;2023-05-10T03:45:24;14.70;99.90
17986;DHT22;9118;48.122;11.546;2023-05-10T03:47:51;15.50;99.90
17986;DHT22;9118;48.122;11.546;2023-05-10T03:50:18;14.60;99.90
17986;DHT22;9118;48.122;11.546;2023-05-10T03:52:46;14.60;99.90
17986;DHT22;9118;48.122;11.546;2023-05-10T03:55:13;14.70;99.90
17986;DHT22;9118;48.122;11.546;2023-05-10T03:57:41;14.70;99.90
17986;DHT22;9118;48.122;11.546;2023-05-10T04:00:09;14.60;99.90
17986;DHT22;9118;48.122;11.546;2023-05-10T04:02:38;14.70;99.90
17986;DHT22;9118;48.122;11.546;2023-05-10T04:05:06;15.10;99.90
17986;DHT22;9118;48.122;11.546;2023-05-10T04:07:33;14.70;99.90
17986;DHT22;9118;48.122;11.546;2023-05-10T04:10:00;14.70;99.90
17986;DHT22;9118;48.122;11.546;2023-05-10T04:12:27;14.60;99.90
17986;DHT22;9118;48.122;11.546;2023-05-10T04:14:54;14.50;99.90
17986;DHT22;9118;48.122;11.546;2023-05-10T04:17:21;14.50;99.90
17986;DHT22;9118;48.122;11.546;2023-05-10T04:19:50;14.40;99.90
17986;DHT22;9118;48.122;11.546;2023-05-10T04:22:22;14.30;99.90
17986;DHT22;9118;48.122;11.546;2023-05-10T04:24:49;14.50;99.90
17986;DHT22;9118;48.122;11.546;2023-05-10T04:27:16;14.40;99.90
17986;DHT22;9118;48.122;11.546;2023-05-10T04:29:44;14.30;99.90
17986;DHT22;9118;48.122;11.546;2023-05-10T04:32:11;14.40;99.90
17986;DHT22;9118;48.122;11.546;2023-05-10T04:34:38;14.40;99.90
17986;DHT22;9118;48.122;11.546;2023-05-10T04:37:07;14.50;99.90
17986;DHT22;9118;48.122;11.546;2023-05-10T04:39:36;14.40;99.90
17986;DHT22;9118;48.122;11.546;2023-05-10T04:42:03;14.40;99.90
17986;DHT22;9118;48.122;11.546;2023-05-10T04:44:31;14.40;99.90
17986;DHT22;9118;48.122;11.546;2023-05-10T04:46:58;14.50;99.90
17986;DHT22;9118;48.122;11.546;2023-05-10T04:49:25;14.50;99.90
17986;DHT22;9118;48.122;11.546;2023-05-10T04:51:54;14.30;99.90
17986;DHT22;9118;48.122;11.546;2023-05-10T04:54:22;13.70;99.90
17986;DHT22;9118;48.122;11.546;2023-05-10T04:56:49;14.00;99.90
17986;DHT22;9118;48.122;11.546;2023-05-10T04:59:17;14.00;99.90
17986;DHT22;9118;48.122;11.546;2023-05-10T05:01:44;14.00;99.90
17986;DHT22;9118;48.122;11.546;2023-05-10T05:04:11;13.90;99.90
17986;DHT22;9118;48.122;11.546;2023-05-10T05:06:38;13.70;99.90
17986;DHT22;9118;48.122;11.546;2023-05-10T05:09:11;13.50;99.90
17986;DHT22;9118;48.122;11.546;2023-05-10T05:11:54;13.70;99.90
17986;DHT22;9118;48.122;11.546;2023-05-10T05:14:21;13.50;99.90
17986;DHT22;9118;48.122;11.546;2023-05-10T05:16:50;13.40;99.90
17986;DHT22;9118;48.122;11.546;2023-05-10T05:19:17;13.30;99.90
17986;DHT22;9118;48.122;11.546;2023-05-10T05:21:44;14.10;99.90
17986;DHT22;9118;48.122;11.546;2023-05-10T05:24:12;13.00;99.90
17986;DHT22;9118;48.122;11.546;2023-05-10T05:26:39;13.00;99.90
17986;DHT22;9118;48.122;11.546;2023-05-10T05:29:08;12.90;99.90
17986;DHT22;9118;48.122;11.546;2023-05-10T05:31:36;13.40;99.90
17986;DHT22;9118;48.122;11.546;2023-05-10T05:34:08;13.00;99.90
17986;DHT22;9118;48.122;11.546;2023-05-10T05:36:52;12.00;99.90
17986;DHT22;9118;48.122;11.546;2023-05-10T05:39:21;13.00;99.90
17986;DHT22;9118;48.122;11.546;2023-05-10T05:41:51;12.90;99.90
17986;DHT22;9118;48.122;11.546;2023-05-10T05:44:19;12.80;99.90
17986;DHT22;9118;48.122;11.546;2023-05-10T05:46:55;12.70;99.90
17986;DHT22;9118;48.122;11.546;2023-05-10T05:49:43;13.30;99.90
17986;DHT22;9118;48.122;11.546;2023-05-10T05:52:12;12.60;99.90
17986;DHT22;9118;48.122;11.546;2023-05-10T05:54:39;12.70;99.90
17986;DHT22;9118;48.122;11.546;2023-05-10T05:57:06;12.70;99.90
17986;DHT22;9118;48.122;11.546;2023-05-10T05:59:34;12.80;99.90
17986;DHT22;9118;48.122;11.546;2023-05-10T06:02:01;12.90;99.90
17986;DHT22;9118;48.122;11.546;2023-05-10T06:04:28;12.80;99.90
17986;DHT22;9118;48.122;11.546;2023-05-10T06:06:55;12.80;99.90
17986;DHT22;9118;48.122;11.546;2023-05-10T06:09:22;12.80;99.90
17986;DHT22;9118;48.122;11.546;2023-05-10T06:11:50;12.80;99.90
17986;DHT22;9118;48.122;11.546;2023-05-10T06:14:17;13.00;99.90
17986;DHT22;9118;48.122;11.546;2023-05-10T06:16:45;13.00;99.90
17986;DHT22;9118;48.122;11.546;2023-05-10T06:19:12;13.10;99.90
17986;DHT22;9118;48.122;11.546;2023-05-10T06:21:39;13.10;99.90
17986;DHT22;9118;48.122;11.546;2023-05-10T06:24:06;12.90;99.90
17986;DHT22;9118;48.122;11.546;2023-05-10T06:26:34;12.70;99.90
17986;DHT22;9118;48.122;11.546;2023-05-10T06:29:01;13.10;99.90
17986;DHT22;9118;48.122;11.546;2023-05-10T06:31:28;14.50;99.90
17986;DHT22;9118;48.122;11.546;2023-05-10T06:33:56;13.30;99.90
17986;DHT22;9118;48.122;11.546;2023-05-10T06:36:23;13.10;99.90
17986;DHT22;9118;48.122;11.546;2023-05-10T06:38:51;13.20;99.90
17986;DHT22;9118;48.122;11.546;2023-05-10T06:41:18;13.10;99.90
17986;DHT22;9118;48.122;11.546;2023-05-10T06:43:46;13.10;99.90
17986;DHT22;9118;48.122;11.546;2023-05-10T06:46:13;13.20;99.90
17986;DHT22;9118;48.122;11.546;2023-05-10T06:48:40;13.20;99.90
17986;DHT22;9118;48.122;11.546;2023-05-10T06:51:08;13.30;99.90
17986;DHT22;9118;48.122;11.546;2023-05-10T06:53:35;13.30;99.90
17986;DHT22;9118;48.122;11.546;2023-05-10T06:56:02;13.60;99.90
17986;DHT22;9118;48.122;11.546;2023-05-10T06:58:29;13.60;99.90
17986;DHT22;9118;48.122;11.546;2023-05-10T07:01:02;13.60;99.90
17986;DHT22;9118;48.122;11.546;2023-05-10T07:03:29;13.50;99.90
17986;DHT22;9118;48.122;11.546;2023-05-10T07:06:00;13.50;99.90
17986;DHT22;9118;48.122;11.546;2023-05-10T07:08:30;13.70;99.90
17986;DHT22;9118;48.122;11.546;2023-05-10T07:11:02;13.80;99.90
17986;DHT22;9118;48.122;11.546;2023-05-10T07:13:29;13.90;99.90
17986;DHT22;9118;48.122;11.546;2023-05-10T07:15:57;13.90;99.90
17986;DHT22;9118;48.122;11.546;2023-05-10T07:18:24;13.90;99.90
17986;DHT22;9118;48.122;11.546;2023-05-10T07:20:51;13.90;99.90
17986;DHT22;9118;48.122;11.546;2023-05-10T07:23:18;13.90;99.90
17986;DHT22;9118;48.122;11.546;2023-05-10T07:25:47;14.10;99.90
17986;DHT22;9118;48.122;11.546;2023-05-10T07:28:15;14.20;99.90
17986;DHT22;9118;48.122;11.546;2023-05-10T07:30:42;14.30;99.90
17986;DHT22;9118;48.122;11.546;2023-05-10T07:33:10;14.50;99.90
17986;DHT22;9118;48.122;11.546;2023-05-10T07:35:38;14.50;99.90
17986;DHT22;9118;48.122;11.546;2023-05-10T07:38:05;14.30;99.90
17986;DHT22;9118;48.122;11.546;2023-05-10T07:40:32;14.20;99.90
17986;DHT22;9118;48.122;11.546;2023-05-10T07:43:01;14.30;99.90
17986;DHT22;9118;48.122;11.546;2023-05-10T07:45:28;14.50;99.90
17986;DHT22;9118;48.122;11.546;2023-05-10T07:47:55;14.60;99.90
17986;DHT22;9118;48.122;11.546;2023-05-10T07:50:22;14.70;99.90
17986;DHT22;9118;48.122;11.546;2023-05-10T07:52:49;14.80;99.90
17986;DHT22;9118;48.122;11.546;2023-05-10T07:55:16;15.60;99.90
17986;DHT22;9118;48.122;11.546;2023-05-10T07:57:44;15.10;99.90
17986;DHT22;9118;48.122;11.546;2023-05-10T08:00:17;14.90;99.90
17986;DHT22;9118;48.122;11.546;2023-05-10T08:02:44;14.90;99.90
17986;DHT22;9118;48.122;11.546;2023-05-10T08:05:11;14.70;99.90
17986;DHT22;9118;48.122;11.546;2023-05-10T08:07:39;14.70;99.90
17986;DHT22;9118;48.122;11.546;2023-05-10T08:10:07;14.80;99.90
17986;DHT22;9118;48.122;11.546;2023-05-10T08:12:34;14.70;99.90
17986;DHT22;9118;48.122;11.546;2023-05-10T08:15:01;14.60;99.90
17986;DHT22;9118;48.122;11.546;2023-05-10T08:17:30;13.10;99.90
17986;DHT22;9118;48.122;11.546;2023-05-10T08:19:58;14.40;99.90
17986;DHT22;9118;48.122;11.546;2023-05-10T08:22:25;14.40;99.90
17986;DHT22;9118;48.122;11.546;2023-05-10T08:24:51;14.40;99.90
17986;DHT22;9118;48.122;11.546;2023-05-10T08:27:18;14.40;99.90
17986;DHT22;9118;48.122;11.546;2023-05-10T08:29:45;14.50;99.90
17986;DHT22;9118;48.122;11.546;2023-05-10T08:32:12;14.50;99.90
17986;DHT22;9118;48.122;11.546;2023-05-10T08:34:41;14.40;99.90
17986;DHT22;9118;48.122;11.546;2023-05-10T08:37:08;14.10;99.90
17986;DHT22;9118;48.122;11.546;2023-05-10T08:39:36;14.00;99.90
17986;DHT22;9118;48.122;11.546;2023-05-10T08:42:05;14.10;99.90
17986;DHT22;9118;48.122;11.546;2023-05-10T08:44:35;14.20;99.90
17986;DHT22;9118;48.122;11.546;2023-05-10T08:47:04;14.40;99.90
17986;DHT22;9118;48.122;11.546;2023-05-10T08:49:32;14.50;99.90
17986;DHT22;9118;48.122;11.546;2023-05-10T08:52:03;14.50;99.90
17986;DHT22;9118;48.122;11.546;2023-05-10T08:54:31;14.70;99.90
17986;DHT22;9118;48.122;11.546;2023-05-10T08:56:59;14.70;99.90
17986;DHT22;9118;48.122;11.546;2023-05-10T08:59:27;15.20;99.90
17986;DHT22;9118;48.122;11.546;2023-05-10T09:01:55;14.60;99.90
17986;DHT22;9118;48.122;11.546;2023-05-10T09:04:24;14.50;99.90
17986;DHT22;9118;48.122;11.546;2023-05-10T09:06:51;13.80;99.90
17986;DHT22;9118;48.122;11.546;2023-05-10T09:09:20;14.50;99.90
17986;DHT22;9118;48.122;11.546;2023-05-10T09:11:48;14.80;99.90
17986;DHT22;9118;48.122;11.546;2023-05-10T09:14:15;14.90;99.90
17986;DHT22;9118;48.122;11.546;2023-05-10T09:16:42;14.90;99.90
17986;DHT22;9118;48.122;11.546;2023-05-10T09:19:10;14.60;99.90
17986;DHT22;9118;48.122;11.546;2023-05-10T09:21:37;15.00;99.90
17986;DHT22;9118;48.122;11.546;2023-05-10T09:24:05;14.90;99.90
17986;DHT22;9118;48.122;11.546;2023-05-10T09:26:34;14.80;99.90
17986;DHT22;9118;48.122;11.546;2023-05-10T09:29:02;14.60;99.90
17986;DHT22;9118;48.122;11.546;2023-05-10T09:31:50;14.60;99.90
17986;DHT22;9118;48.122;11.546;2023-05-10T09:34:27;14.70;99.90
17986;DHT22;9118;48.122;11.546;2023-05-10T09:36:56;14.80;99.90
17986;DHT22;9118;48.122;11.546;2023-05-10T09:39:30;14.90;99.90
17986;DHT22;9118;48.122;11.546;2023-05-10T09:42:01;14.80;99.90
17986;DHT22;9118;48.122;11.546;2023-05-10T09:44:30;15.00;99.90
17986;DHT22;9118;48.122;11.546;2023-05-10T09:46:57;15.20;99.90
17986;DHT22;9118;48.122;11.546;2023-05-10T09:49:24;15.10;99.90
17986;DHT22;9118;48.122;11.546;2023-05-10T09:52:00;15.40;99.90
17986;DHT22;9118;48.122;11.546;2023-05-10T09:54:28;15.40;99.90
17986;DHT22;9118;48.122;11.546;2023-05-10T09:56:55;15.50;99.90
17986;DHT22;9118;48.122;11.546;2023-05-10T09:59:25;15.70;99.90
17986;DHT22;9118;48.122;11.546;2023-05-10T10:01:53;15.90;99.90
17986;DHT22;9118;48.122;11.546;2023-05-10T10:04:20;16.10;99.90
17986;DHT22;9118;48.122;11.546;2023-05-10T10:06:58;16.00;99.90
17986;DHT22;9118;48.122;11.546;2023-05-10T10:09:26;16.00;99.90
17986;DHT22;9118;48.122;11.546;2023-05-10T10:11:54;16.20;99.90
17986;DHT22;9118;48.122;11.546;2023-05-10T10:14:23;16.10;99.90
17986;DHT22;9118;48.122;11.546;2023-05-10T10:16:51;16.10;99.90
17986;DHT22;9118;48.122;11.546;2023-05-10T10:19:19;15.60;99.90
17986;DHT22;9118;48.122;11.546;2023-05-10T10:21:46;15.80;99.90
17986;DHT22;9118;48.122;11.546;2023-05-10T10:24:13;15.70;99.90
17986;DHT22;9118;48.122;11.546;2023-05-10T10:26:42;15.90;99.90
17986;DHT22;9118;48.122;11.546;2023-05-10T10:29:15;16.10;99.90
17986;DHT22;9118;48.122;11.546;2023-05-10T10:31:50;16.20;99.90
17986;DHT22;9118;48.122;11.546;2023-05-10T10:34:25;16.30;99.90
17986;DHT22;9118;48.122;11.546;2023-05-10T10:36:54;16.80;99.90
17986;DHT22;9118;48.122;11.546;2023-05-10T10:39:22;16.60;99.90
17986;DHT22;9118;48.122;11.546;2023-05-10T10:41:51;16.80;99.90
17986;DHT22;9118;48.122;11.546;2023-05-10T10:44:35;17.00;99.90
17986;DHT22;9118;48.122;11.546;2023-05-10T10:47:23;17.00;99.90
17986;DHT22;9118;48.122;11.546;2023-05-10T10:50:03;16.50;99.90
17986;DHT22;9118;48.122;11.546;2023-05-10T10:52:32;16.60;99.90
17986;DHT22;9118;48.122;11.546;2023-05-10T10:55:02;16.60;99.90
17986;DHT22;9118;48.122;11.546;2023-05-10T10:57:32;16.70;99.90
17986;DHT22;9118;48.122;11.546;2023-05-10T11:00:32;16.40;99.90
17986;DHT22;9118;48.122;11.546;2023-05-10T11:03:04;16.40;99.90
17986;DHT22;9118;48.122;11.546;2023-05-10T11:05:40;16.00;99.90
17986;DHT22;9118;48.122;11.546;2023-05-10T11:08:26;15.80;99.90
17986;DHT22;9118;48.122;11.546;2023-05-10T11:11:03;15.60;99.90
17986;DHT22;9118;48.122;11.546;2023-05-10T11:13:34;15.50;99.90
17986;DHT22;9118;48.122;11.546;2023-05-10T11:16:14;15.50;99.90
17986;DHT22;9118;48.122;11.546;2023-05-10T11:18:59;15.50;99.90
17986;DHT22;9118;48.122;11.546;2023-05-10T11:21:28;15.70;99.90
17986;DHT22;9118;48.122;11.546;2023-05-10T11:23:56;15.90;99.90
17986;DHT22;9118;48.122;11.546;2023-05-10T11:26:24;15.80;99.90
17986;DHT22;9118;48.122;11.546;2023-05-10T11:28:53;16.10;99.90
17986;DHT22;9118;48.122;11.546;2023-05-10T11:31:22;16.10;99.90
17986;DHT22;9118;48.122;11.546;2023-05-10T11:33:52;15.70;99.90
17986;DHT22;9118;48.122;11.546;2023-05-10T11:36:24;15.30;99.90
17986;DHT22;9118;48.122;11.546;2023-05-10T11:38:52;14.80;99.90
17986;DHT22;9118;48.122;11.546;2023-05-10T11:41:20;14.70;99.90
17986;DHT22;9118;48.122;11.546;2023-05-10T11:43:50;14.50;99.90
17986;DHT22;9118;48.122;11.546;2023-05-10T11:46:19;14.10;99.90
17986;DHT22;9118;48.122;11.546;2023-05-10T11:48:48;13.70;99.90
17986;DHT22;9118;48.122;11.546;2023-05-10T11:51:21;13.60;99.90
17986;DHT22;9118;48.122;11.546;2023-05-10T11:53:50;13.50;99.90
17986;DHT22;9118;48.122;11.546;2023-05-10T11:56:17;13.50;99.90
17986;DHT22;9118;48.122;11.546;2023-05-10T11:58:44;13.40;99.90
17986;DHT22;9118;48.122;11.546;2023-05-10T12:01:12;13.40;99.90
17986;DHT22;9118;48.122;11.546;2023-05-10T12:03:40;13.20;99.90
17986;DHT22;9118;48.122;11.546;2023-05-10T12:06:07;13.10;99.90
17986;DHT22;9118;48.122;11.546;2023-05-10T12:08:36;13.10;99.90
17986;DHT22;9118;48.122;11.546;2023-05-10T12:11:08;13.20;99.90
17986;DHT22;9118;48.122;11.546;2023-05-10T12:13:38;13.00;99.90
17986;DHT22;9118;48.122;11.546;2023-05-10T12:16:13;12.90;99.90
17986;DHT22;9118;48.122;11.546;2023-05-10T12:18:40;12.90;99.90
17986;DHT22;9118;48.122;11.546;2023-05-10T12:21:09;11.00;99.90
17986;DHT22;9118;48.122;11.546;2023-05-10T12:23:38;13.00;99.90
17986;DHT22;9118;48.122;11.546;2023-05-10T12:26:05;12.90;99.90
17986;DHT22;9118;48.122;11.546;2023-05-10T12:28:33;13.10;99.90
17986;DHT22;9118;48.122;11.546;2023-05-10T12:31:01;13.20;99.90
17986;DHT22;9118;48.122;11.546;2023-05-10T12:33:36;13.40;99.90
17986;DHT22;9118;48.122;11.546;2023-05-10T12:36:06;13.70;99.90
17986;DHT22;9118;48.122;11.546;2023-05-10T12:38:34;14.50;99.90
17986;DHT22;9118;48.122;11.546;2023-05-10T12:41:07;13.90;99.90
17986;DHT22;9118;48.122;11.546;2023-05-10T12:43:35;14.50;99.90
17986;DHT22;9118;48.122;11.546;2023-05-10T12:46:06;13.90;99.90
17986;DHT22;9118;48.122;11.546;2023-05-10T12:48:34;14.10;99.90
17986;DHT22;9118;48.122;11.546;2023-05-10T12:51:02;13.90;99.90
17986;DHT22;9118;48.122;11.546;2023-05-10T12:53:29;14.00;99.90
17986;DHT22;9118;48.122;11.546;2023-05-10T12:55:56;14.20;99.90
17986;DHT22;9118;48.122;11.546;2023-05-10T12:58:25;14.10;99.90
17986;DHT22;9118;48.122;11.546;2023-05-10T13:00:52;14.00;99.90
17986;DHT22;9118;48.122;11.546;2023-05-10T13:03:19;14.20;99.90
17986;DHT22;9118;48.122;11.546;2023-05-10T13:05:46;14.70;99.90
17986;DHT22;9118;48.122;11.546;2023-05-10T13:08:13;14.40;99.90
17986;DHT22;9118;48.122;11.546;2023-05-10T13:10:40;14.30;99.90
17986;DHT22;9118;48.122;11.546;2023-05-10T13:13:08;14.40;99.90
17986;DHT22;9118;48.122;11.546;2023-05-10T13:15:36;14.60;99.90
17986;DHT22;9118;48.122;11.546;2023-05-10T13:18:03;14.70;99.90
17986;DHT22;9118;48.122;11.546;2023-05-10T13:20:30;14.80;99.90
17986;DHT22;9118;48.122;11.546;2023-05-10T13:22:57;14.90;99.90
17986;DHT22;9118;48.122;11.546;2023-05-10T13:25:24;15.00;99.90
17986;DHT22;9118;48.122;11.546;2023-05-10T13:27:51;14.70;99.90
17986;DHT22;9118;48.122;11.546;2023-05-10T13:30:18;15.10;99.90
17986;DHT22;9118;48.122;11.546;2023-05-10T13:32:47;15.10;99.90
17986;DHT22;9118;48.122;11.546;2023-05-10T13:35:14;15.00;99.90
17986;DHT22;9118;48.122;11.546;2023-05-10T13:37:41;15.00;99.90
17986;DHT22;9118;48.122;11.546;2023-05-10T13:40:09;15.00;99.90
17986;DHT22;9118;48.122;11.546;2023-05-10T13:42:36;14.90;99.90
17986;DHT22;9118;48.122;11.546;2023-05-10T13:45:03;14.90;99.90
17986;DHT22;9118;48.122;11.546;2023-05-10T13:47:30;15.00;99.90
17986;DHT22;9118;48.122;11.546;2023-05-10T13:49:59;14.90;99.90
17986;DHT22;9118;48.122;11.546;2023-05-10T13:52:26;15.40;99.90
17986;DHT22;9118;48.122;11.546;2023-05-10T13:54:53;15.10;99.90
17986;DHT22;9118;48.122;11.546;2023-05-10T13:57:21;14.80;99.90
17986;DHT22;9118;48.122;11.546;2023-05-10T13:59:48;14.90;99.90
17986;DHT22;9118;48.122;11.546;2023-05-10T14:02:17;14.70;99.90
17986;DHT22;9118;48.122;11.546;2023-05-10T14:04:44;14.70;99.90
17986;DHT22;9118;48.122;11.546;2023-05-10T14:07:12;14.70;99.90
17986;DHT22;9118;48.122;11.546;2023-05-10T14:09:39;14.70;99.90
17986;DHT22;9118;48.122;11.546;2023-05-10T14:12:07;14.80;99.90
17986;DHT22;9118;48.122;11.546;2023-05-10T14:14:34;14.90;99.90
17986;DHT22;9118;48.122;11.546;2023-05-10T14:17:01;15.00;99.90
17986;DHT22;9118;48.122;11.546;2023-05-10T14:19:29;15.00;99.90
17986;DHT22;9118;48.122;11.546;2023-05-10T14:21:58;14.90;99.90
17986;DHT22;9118;48.122;11.546;2023-05-10T14:24:26;15.10;99.90
17986;DHT22;9118;48.122;11.546;2023-05-10T14:26:54;15.70;99.90
17986;DHT22;9118;48.122;11.546;2023-05-10T14:29:21;15.20;99.90
17986;DHT22;9118;48.122;11.546;2023-05-10T14:31:49;15.20;99.90
17986;DHT22;9118;48.122;11.546;2023-05-10T14:34:16;15.20;99.90
17986;DHT22;9118;48.122;11.546;2023-05-10T14:36:45;15.30;99.90
17986;DHT22;9118;48.122;11.546;2023-05-10T14:39:12;16.40;99.90
17986;DHT22;9118;48.122;11.546;2023-05-10T14:41:41;15.40;99.90
17986;DHT22;9118;48.122;11.546;2023-05-10T14:44:10;15.10;99.90
17986;DHT22;9118;48.122;11.546;2023-05-10T14:46:37;14.50;99.90
17986;DHT22;9118;48.122;11.546;2023-05-10T14:49:05;14.00;99.90
17986;DHT22;9118;48.122;11.546;2023-05-10T14:51:32;13.60;99.90
17986;DHT22;9118;48.122;11.546;2023-05-10T14:53:59;13.30;99.90
17986;DHT22;9118;48.122;11.546;2023-05-10T14:56:26;13.30;99.90
17986;DHT22;9118;48.122;11.546;2023-05-10T14:58:55;13.40;99.90
17986;DHT22;9118;48.122;11.546;2023-05-10T15:01:22;13.30;99.90
17986;DHT22;9118;48.122;11.546;2023-05-10T15:03:49;13.30;99.90
17986;DHT22;9118;48.122;11.546;2023-05-10T15:06:16;13.30;99.90
17986;DHT22;9118;48.122;11.546;2023-05-10T15:08:43;13.40;99.90
17986;DHT22;9118;48.122;11.546;2023-05-10T15:11:11;13.50;99.90
17986;DHT22;9118;48.122;11.546;2023-05-10T15:13:38;13.90;99.90
17986;DHT22;9118;48.122;11.546;2023-05-10T15:16:08;13.40;99.90
17986;DHT22;9118;48.122;11.546;2023-05-10T15:18:52;13.50;99.90
17986;DHT22;9118;48.122;11.546;2023-05-10T15:21:25;15.60;99.90
17986;DHT22;9118;48.122;11.546;2023-05-10T15:23:54;14.10;99.90
17986;DHT22;9118;48.122;11.546;2023-05-10T15:26:21;13.80;99.90
17986;DHT22;9118;48.122;11.546;2023-05-10T15:28:49;13.80;99.90
17986;DHT22;9118;48.122;11.546;2023-05-10T15:31:17;13.60;99.90
17986;DHT22;9118;48.122;11.546;2023-05-10T15:33:45;13.40;99.90
17986;DHT22;9118;48.122;11.546;2023-05-10T15:36:13;13.20;99.90
17986;DHT22;9118;48.122;11.546;2023-05-10T15:38:41;13.40;99.90
17986;DHT22;9118;48.122;11.546;2023-05-10T15:41:08;13.10;99.90
17986;DHT22;9118;48.122;11.546;2023-05-10T15:43:35;13.30;99.90
17986;DHT22;9118;48.122;11.546;2023-05-10T15:46:03;13.30;99.90